39  °F
Temperature
4  °C
Temperature
-3  °C
 Dewpoint
27  °F
  Dewpoint
61  %
 Humidity
  Temperature
3  mph
Wind Speed
3  kts
Wind Speed
5  km/h
Wind Speed
1.3  m/s
Wind Speed
140°
South East

Wind Speed
Partly Cloudy
Conditions
Pressure 30.17 (inHG) - 1021.72 (mb)
Visibility 10.0 (mi) - 16.1 (km)

Sky Conditions
KPCW
Location Erie-Ottawa International 5 mi (8.05 km)
Metar :KPCW 232235Z AUTO 14003KT 10SM FEW080 OVC095 04/M03 A3017 RMK AO2
Thu 23rd January 18:35 pm

Nearest Airport
https://www.checkwx.com/weather/KPCW
  Metar Aviation API Data Provided by https://www.checkwx.com/ Original CSS/SVG/PHP scripts by weather34.com © 2015-2020